This is the latest recevied weather packets stored in our database for station/object YS1AHL-28. If no packets are shown the sender has not sent any weather packets the latest 10 day(s).
| Time | Temp. | Humidity | Pressure | Rain* | Wind** | Luminosity | Snow |
|---|---|---|---|---|---|---|---|
| 1787752963 | 20° C | 78% | 1017 hPa | 0 mm | - | - | - |
| 1787752422 | 19.44° C | 80% | 1018 hPa | 0 mm | - | - | - |
| 1787752362 | 19.44° C | 80% | 1018 hPa | 0 mm | - | - | - |
| 1787751821 | 19.44° C | 80% | 1018 hPa | 0 mm | - | - | - |
| 1787751761 | 19.44° C | 80% | 1018 hPa | 0 mm | - | - | - |
| 1787751221 | 20° C | 80% | 1018 hPa | 0 mm | - | - | - |
| 1787751161 | 20° C | 80% | 1018 hPa | 0 mm | - | - | - |
| 1787750620 | 18.89° C | 83% | 1017 hPa | 0 mm | - | - | - |
| 1787750560 | 18.89° C | 83% | 1017 hPa | 0 mm | - | - | - |
| 1787750019 | 18.89° C | 83% | 1017 hPa | 0 mm | - | - | - |
| 1787749959 | 18.89° C | 83% | 1017 hPa | 0 mm | - | - | - |
| 1787749419 | 19.44° C | 84% | 1017 hPa | 0 mm | - | - | - |
| 1787749359 | 19.44° C | 84% | 1017 hPa | 0 mm | - | - | - |
| 1787748818 | 18.33° C | 86% | 1017 hPa | 0 mm | - | - | - |
| 1787748758 | 18.33° C | 86% | 1017 hPa | 0 mm | - | - | - |
| 1787748218 | 18.33° C | 87% | 1017 hPa | 0 mm | - | - | - |
| 1787748157 | 18.33° C | 87% | 1017 hPa | 0 mm | - | - | - |
| 1787747617 | 17.78° C | 93% | 1017 hPa | 0 mm | - | - | - |
| 1787747557 | 17.78° C | 93% | 1017 hPa | 0 mm | - | - | - |
| 1787747016 | 17.78° C | 94% | 1017 hPa | 0 mm | - | - | - |
| 1787746956 | 17.78° C | 94% | 1017 hPa | 0 mm | - | - | - |
| 1787746416 | 17.78° C | 93% | 1017 hPa | 0 mm | - | - | - |
| 1787746355 | 17.78° C | 93% | 1017 hPa | 0 mm | - | - | - |
| 1787745815 | 16.67° C | 95% | 1017 hPa | 0 mm | - | - | - |
| 1787745755 | 16.67° C | 95% | 1017 hPa | 0 mm | - | - | - |
* Rain latest hour (hover to see other rain measurements)
** Current wind speed in m/s (hover to see current wind gust speed)